Time;durP1;ratioP1;P1;durP2;ratioP2;P2;SDS_P1;SDS_P2;PMS_P1;PMS_P2;Temp;Humidity;BMP_temperature;BMP_pressure;BME280_temperature;BME280_humidity;BME280_pressure;Samples;Min_cycle;Max_cycle;Signal;HPM_P1;HPM_P2
2023/03/07 00:00:01;;;;;;;;;29.25;26.75;;;;;9.13;82.70;100125.63;5080870;28;45478;-80
2023/03/07 00:02:26;;;;;;;;;27.50;24.25;;;;;9.17;82.60;100126.91;5081406;28;45368;-80
2023/03/07 00:04:51;;;;;;;;;25.75;24.75;;;;;9.18;83.51;100134.69;5081814;27;45394;-80
2023/03/07 00:07:17;;;;;;;;;31.00;25.75;;;;;9.15;82.62;100124.44;5081918;27;45342;-80
2023/03/07 00:09:42;;;;;;;;;29.50;28.50;;;;;9.22;83.39;100137.81;5064980;27;50108;-80
2023/03/07 00:12:08;;;;;;;;;25.25;22.75;;;;;9.18;82.96;100132.03;5072973;28;45478;-80
2023/03/07 00:14:34;;;;;;;;;24.67;21.67;;;;;9.20;84.03;100138.00;5080388;27;46110;-80
2023/03/07 00:17:00;;;;;;;;;23.00;22.00;;;;;9.24;83.50;100134.94;5079998;28;45992;-80
2023/03/07 00:19:25;;;;;;;;;29.50;25.00;;;;;9.12;83.57;100116.84;5080961;27;45672;-80
2023/03/07 00:21:51;;;;;;;;;30.50;24.75;;;;;9.19;83.43;100131.00;5081135;27;45358;-80
2023/03/07 00:24:16;;;;;;;;;24.00;22.33;;;;;9.13;83.73;100110.53;5082451;28;45866;-79
2023/03/07 00:26:41;;;;;;;;;30.00;22.67;;;;;9.22;83.71;100135.16;5080768;28;52030;-80
2023/03/07 00:29:08;;;;;;;;;28.00;26.75;;;;;9.22;83.92;100125.34;5078492;28;45435;-79
2023/03/07 00:31:33;;;;;;;;;27.50;24.00;;;;;9.21;83.93;100131.66;5081036;28;45567;-80
2023/03/07 00:33:59;;;;;;;;;25.00;23.33;;;;;9.20;84.07;100122.06;5077929;27;46093;-80
2023/03/07 00:36:25;;;;;;;;;23.50;21.50;;;;;9.13;84.02;100110.53;5073622;28;45393;-80
2023/03/07 00:38:50;;;;;;;;;14.75;14.75;;;;;9.21;83.70;100126.38;5081258;28;45484;-80
2023/03/07 00:41:26;;;;;;;;;20.75;19.00;;;;;9.16;83.83;100112.81;5080606;28;46188;-80
2023/03/07 00:43:53;;;;;;;;;22.67;21.00;;;;;9.08;84.29;100102.28;5074327;27;46119;-80
2023/03/07 00:46:21;;;;;;;;;21.25;19.75;;;;;9.14;83.95;100116.66;5077047;28;45358;-80
2023/03/07 00:48:47;;;;;;;;;17.00;16.00;;;;;9.04;84.23;100093.06;5083341;27;45228;-81
2023/03/07 00:51:14;;;;;;;;;27.75;22.25;;;;;9.09;84.19;100102.13;5080658;28;47197;-80
2023/03/07 00:53:40;;;;;;;;;23.75;22.25;;;;;9.02;83.60;100090.59;5082751;27;45341;-82
2023/03/07 00:56:11;;;;;;;;;23.33;22.00;;;;;9.07;83.66;100096.16;5076436;28;45472;-80
2023/03/07 00:58:37;;;;;;;;;21.00;21.00;;;;;9.01;83.58;100085.47;5067134;28;45239;-80
2023/03/07 01:01:04;;;;;;;;;21.67;21.33;;;;;9.06;84.10;100094.53;5081014;27;45615;-80
2023/03/07 01:03:29;;;;;;;;;26.00;21.67;;;;;9.08;83.98;100091.69;5079942;27;47420;-80
2023/03/07 01:05:56;;;;;;;;;24.33;22.33;;;;;9.05;84.08;100084.94;5074909;28;45445;-80
2023/03/07 01:08:22;;;;;;;;;27.25;24.25;;;;;9.06;83.76;100091.03;5073760;27;45459;-80
2023/03/07 01:10:48;;;;;;;;;24.67;21.00;;;;;9.00;83.84;100081.97;5060929;28;45366;-80
2023/03/07 01:13:14;;;;;;;;;22.00;21.00;;;;;9.00;83.90;100078.50;5068659;28;46248;-82
2023/03/07 01:15:40;;;;;;;;;25.00;20.00;;;;;9.00;83.47;100079.34;5081024;28;45318;-80
2023/03/07 01:18:07;;;;;;;;;16.00;16.00;;;;;8.96;83.38;100073.59;5083704;28;45291;-80
2023/03/07 01:20:35;;;;;;;;;23.00;20.33;;;;;8.91;84.05;100068.00;5082775;28;46532;-80
2023/03/07 01:23:00;;;;;;;;;28.00;22.33;;;;;9.00;84.20;100075.84;5079436;27;48211;-80
2023/03/07 01:25:26;;;;;;;;;25.00;22.00;;;;;8.88;83.96;100046.31;5079847;28;45579;-80
2023/03/07 01:27:54;;;;;;;;;25.00;24.00;;;;;8.87;84.08;100042.03;5084320;28;45390;-80
2023/03/07 01:30:22;;;;;;;;;20.67;18.33;;;;;8.91;84.12;100048.59;5068827;28;46091;-80
2023/03/07 01:32:53;;;;;;;;;27.00;22.00;;;;;8.98;84.22;100059.31;5083695;27;46489;-80
2023/03/07 01:35:19;;;;;;;;;30.00;24.33;;;;;8.97;84.42;100050.53;5082878;27;45532;-80
2023/03/07 01:37:47;;;;;;;;;26.00;21.33;;;;;8.96;84.49;100046.25;5083361;28;45388;-80
2023/03/07 01:40:12;;;;;;;;;24.33;20.00;;;;;8.89;84.07;100035.53;5084193;27;45673;-80
2023/03/07 01:42:38;;;;;;;;;18.33;17.00;;;;;8.68;84.34;99999.97;5081755;28;48064;-80
2023/03/07 01:45:05;;;;;;;;;21.00;20.00;;;;;8.93;84.59;100042.13;5081184;28;51628;-80
2023/03/07 01:47:30;;;;;;;;;23.00;22.25;;;;;8.92;84.92;100040.47;5074282;28;45389;-80
2023/03/07 01:50:00;;;;;;;;;24.50;22.00;;;;;8.87;84.45;100029.59;5085313;27;45319;-80
2023/03/07 01:52:30;;;;;;;;;27.33;24.33;;;;;8.88;84.69;100033.91;5084394;27;45263;-80
2023/03/07 01:55:02;;;;;;;;;20.67;20.00;;;;;8.88;84.70;100027.75;5082612;28;45367;-80
2023/03/07 01:57:33;;;;;;;;;17.00;13.67;;;;;8.88;85.21;100023.28;5083412;27;45225;-80
2023/03/07 02:00:07;;;;;;;;;21.67;21.67;;;;;8.88;85.24;100018.00;5081015;28;46277;-80
2023/03/07 02:02:34;;;;;;;;;21.00;18.67;;;;;8.93;85.08;100022.75;5083300;27;45835;-80
2023/03/07 02:05:05;;;;;;;;;29.00;23.00;;;;;8.94;85.12;100021.75;5078681;28;45812;-80
2023/03/07 02:07:36;;;;;;;;;25.67;24.00;;;;;8.87;84.91;100005.75;5078412;28;45386;-80
2023/03/07 02:10:02;;;;;;;;;23.67;22.00;;;;;8.90;84.70;100002.75;5078219;27;45350;-80
2023/03/07 02:12:28;;;;;;;;;27.67;24.00;;;;;8.92;85.19;100007.88;5076374;28;46387;-80
2023/03/07 02:14:53;;;;;;;;;22.00;20.00;;;;;8.69;84.86;99956.59;5081857;28;45733;-81
2023/03/07 02:17:19;;;;;;;;;23.33;19.67;;;;;8.89;84.67;100001.06;5084206;28;45359;-80
2023/03/07 02:19:47;;;;;;;;;25.67;24.33;;;;;8.89;84.39;99993.13;5081678;28;47563;-80
2023/03/07 02:22:16;;;;;;;;;26.33;24.00;;;;;8.75;84.99;99975.41;5082448;28;45329;-80
2023/03/07 02:25:06;;;;;;;;;25.67;24.33;;;;;8.82;85.23;99982.44;5083125;28;45231;-81
2023/03/07 02:27:35;;;;;;;;;25.00;22.33;;;;;8.78;85.36;99969.75;5079826;28;45542;-80
2023/03/07 02:30:00;;;;;;;;;20.33;20.00;;;;;8.84;84.82;99977.78;5068807;27;45544;-80
2023/03/07 02:32:26;;;;;;;;;21.00;19.67;;;;;8.85;84.41;99981.25;5081895;28;45256;-80
2023/03/07 02:34:51;;;;;;;;;25.33;21.67;;;;;8.80;84.87;99963.25;5081574;27;45236;-80
2023/03/07 02:37:21;;;;;;;;;23.33;22.33;;;;;8.86;84.33;99968.84;5081449;28;50507;-80
2023/03/07 02:39:47;;;;;;;;;26.00;24.33;;;;;8.83;84.84;99960.22;5081781;27;45449;-80
2023/03/07 02:42:21;;;;;;;;;24.00;22.67;;;;;8.79;84.87;99956.31;5081541;28;47277;-80
2023/03/07 02:44:46;;;;;;;;;22.00;21.00;;;;;8.75;84.99;99952.38;5080363;28;45288;-80
2023/03/07 02:47:12;;;;;;;;;24.67;20.33;;;;;8.86;84.92;99963.53;5082120;27;45311;-80
2023/03/07 02:49:37;;;;;;;;;21.33;17.33;;;;;8.77;85.39;99957.50;5080486;28;47027;-81
2023/03/07 02:52:03;;;;;;;;;28.00;22.00;;;;;8.80;85.31;99957.94;5081819;28;57055;-80
2023/03/07 02:54:28;;;;;;;;;21.00;19.00;;;;;8.78;85.17;99943.25;5079996;28;46261;-80
2023/03/07 02:56:54;;;;;;;;;24.33;22.00;;;;;8.85;85.00;99954.75;5079743;28;45339;-80
2023/03/07 02:59:19;;;;;;;;;22.00;19.33;;;;;8.82;85.41;99952.47;5082086;28;45363;-80
2023/03/07 03:01:45;;;;;;;;;24.00;22.33;;;;;8.80;84.76;99935.94;5080543;28;46123;-80
2023/03/07 03:04:10;;;;;;;;;20.67;19.33;;;;;8.81;85.28;99943.72;5080033;28;45268;-80
2023/03/07 03:06:36;;;;;;;;;19.67;18.67;;;;;8.86;85.33;99945.78;5079985;28;45453;-80
2023/03/07 03:09:02;;;;;;;;;25.00;24.25;;;;;8.89;84.93;99956.03;5080152;28;45989;-80
2023/03/07 03:11:27;;;;;;;;;28.00;25.00;;;;;8.88;85.03;99942.97;5080196;28;48406;-79
2023/03/07 03:13:53;;;;;;;;;20.00;19.33;;;;;8.82;85.24;99928.63;5080312;27;45280;-80
2023/03/07 03:16:18;;;;;;;;;25.00;24.00;;;;;8.82;84.95;99931.25;5081145;27;45619;-80
2023/03/07 03:18:43;;;;;;;;;22.33;18.67;;;;;8.85;84.96;99933.56;5080226;28;47002;-80
2023/03/07 03:21:09;;;;;;;;;20.67;19.00;;;;;8.73;85.07;99919.94;5081724;27;45476;-80
2023/03/07 03:23:35;;;;;;;;;18.33;15.67;;;;;8.78;84.63;99924.69;5080361;28;45339;-80
2023/03/07 03:26:06;;;;;;;;;24.33;21.33;;;;;8.73;84.57;99917.28;5076351;28;45349;-80
2023/03/07 03:28:32;;;;;;;;;19.67;19.67;;;;;8.68;84.38;99909.88;5076302;28;45388;-80
2023/03/07 03:31:05;;;;;;;;;28.00;24.33;;;;;8.67;84.96;99910.06;5080877;27;45331;-79
2023/03/07 03:33:30;;;;;;;;;19.00;19.00;;;;;8.60;85.10;99902.03;5079496;28;46328;-80
2023/03/07 03:35:57;;;;;;;;;21.67;19.00;;;;;8.67;85.66;99902.13;5082086;27;45251;-80
2023/03/07 03:38:22;;;;;;;;;25.67;22.67;;;;;8.64;84.74;99903.31;5082189;27;45566;-80
2023/03/07 03:40:48;;;;;;;;;24.75;21.25;;;;;8.67;85.06;99910.06;5080434;28;47329;-80
2023/03/07 03:43:13;;;;;;;;;15.67;15.33;;;;;8.70;85.25;99907.06;5080247;28;45323;-79
2023/03/07 03:45:39;;;;;;;;;26.67;22.00;;;;;8.71;85.22;99909.53;5082798;28;45415;-80
2023/03/07 03:48:05;;;;;;;;;22.00;20.00;;;;;8.68;85.05;99898.47;5083590;27;45475;-80
2023/03/07 03:50:30;;;;;;;;;21.00;19.00;;;;;8.65;85.25;99904.16;5083420;28;46417;-80
2023/03/07 03:52:55;;;;;;;;;22.00;22.00;;;;;8.61;84.94;99897.53;5081190;28;45378;-80
2023/03/07 03:55:21;;;;;;;;;26.33;21.67;;;;;8.61;85.31;99890.44;5081548;27;45339;-80
2023/03/07 03:57:46;;;;;;;;;22.33;22.00;;;;;8.63;85.42;99885.78;5080349;28;45397;-80
2023/03/07 04:00:14;;;;;;;;;20.67;20.33;;;;;8.60;85.54;99886.16;5067393;28;57554;-80
2023/03/07 04:02:39;;;;;;;;;27.75;24.50;;;;;8.68;85.44;99895.84;5081599;27;45255;-80
2023/03/07 04:05:05;;;;;;;;;23.33;21.00;;;;;8.67;85.38;99889.69;5081799;28;45240;-80
2023/03/07 04:07:31;;;;;;;;;23.67;20.67;;;;;8.63;84.97;99887.59;5065998;28;46232;-80
2023/03/07 04:09:56;;;;;;;;;16.67;14.00;;;;;8.65;85.26;99894.34;5080124;28;45274;-80
2023/03/07 04:12:21;;;;;;;;;23.67;22.00;;;;;8.63;85.58;99875.19;5080106;28;46123;-80
2023/03/07 04:14:47;;;;;;;;;21.00;18.33;;;;;8.67;85.75;99879.09;5081173;28;45228;-80
2023/03/07 04:17:12;;;;;;;;;24.33;20.00;;;;;8.65;85.41;99878.47;5080803;28;45623;-80
2023/03/07 04:19:37;;;;;;;;;18.67;18.00;;;;;8.64;84.56;99874.16;5084248;27;45456;-81
2023/03/07 04:22:03;;;;;;;;;21.67;17.33;;;;;8.59;85.14;99881.84;5084074;27;45469;-80
2023/03/07 04:24:28;;;;;;;;;25.67;25.00;;;;;8.59;85.88;99881.84;5082733;27;45314;-80
2023/03/07 04:26:53;;;;;;;;;20.67;20.67;;;;;8.54;85.97;99868.31;5079885;28;46370;-80
2023/03/07 04:29:19;;;;;;;;;25.67;23.33;;;;;8.59;85.81;99887.13;5075180;27;46115;-80
2023/03/07 04:31:44;;;;;;;;;20.67;20.00;;;;;8.57;85.52;99883.84;5073411;27;45312;-80
2023/03/07 04:34:10;;;;;;;;;23.67;21.00;;;;;8.54;85.69;99885.06;5069526;27;45361;-80
2023/03/07 04:36:35;;;;;;;;;25.33;20.67;;;;;8.44;85.09;99871.22;5080526;28;45852;-80
2023/03/07 04:39:00;;;;;;;;;20.00;15.00;;;;;8.45;85.55;99878.97;5082051;27;45430;-80
2023/03/07 04:41:26;;;;;;;;;24.00;22.33;;;;;8.41;85.82;99864.44;5096638;27;45361;-80
2023/03/07 04:43:51;;;;;;;;;19.67;19.33;;;;;8.50;85.69;99877.63;5076662;27;45409;-80
2023/03/07 04:46:17;;;;;;;;;21.33;20.33;;;;;8.50;85.96;99882.91;5074372;28;57583;-80
2023/03/07 04:48:44;;;;;;;;;25.67;19.33;;;;;8.44;86.03;99869.38;5082803;27;45337;-80
2023/03/07 04:51:09;;;;;;;;;20.00;18.33;;;;;8.50;86.53;99877.63;5082420;28;45949;-80
2023/03/07 04:53:34;;;;;;;;;20.00;19.67;;;;;8.50;86.96;99867.03;5082394;27;45433;-80
2023/03/07 04:56:03;;;;;;;;;19.00;18.00;;;;;8.54;86.93;99877.09;5083688;28;45619;-80
2023/03/07 04:58:30;;;;;;;;;17.33;14.33;;;;;8.53;86.61;99872.75;5083787;28;46961;-80
2023/03/07 05:00:56;;;;;;;;;20.67;19.67;;;;;8.53;86.11;99877.25;5085014;27;45468;-81
2023/03/07 05:03:22;;;;;;;;;28.25;26.00;;;;;8.51;86.60;99871.31;5085495;27;45345;-80
2023/03/07 05:05:48;;;;;;;;;23.33;19.67;;;;;8.43;85.99;99862.44;5085419;27;45523;-80
2023/03/07 05:08:13;;;;;;;;;22.33;20.67;;;;;8.46;86.58;99862.09;5082271;27;52210;-80
2023/03/07 05:10:38;;;;;;;;;22.33;22.00;;;;;8.44;86.91;99848.19;5072991;27;45501;-80
2023/03/07 05:13:04;;;;;;;;;18.67;17.33;;;;;8.44;86.74;99848.19;5082058;28;45343;-80
2023/03/07 05:15:29;;;;;;;;;20.00;20.00;;;;;8.47;87.14;99849.66;5082120;28;50389;-80
2023/03/07 05:17:55;;;;;;;;;19.67;15.00;;;;;8.47;86.69;99847.00;5082314;28;48254;-80
2023/03/07 05:20:20;;;;;;;;;25.67;20.33;;;;;8.51;86.99;99847.47;5071285;27;52113;-79
2023/03/07 05:22:46;;;;;;;;;27.00;23.00;;;;;8.46;87.16;99846.19;5083403;28;45280;-80
2023/03/07 05:25:11;;;;;;;;;25.67;21.67;;;;;8.42;86.79;99844.94;5084539;27;45445;-81
2023/03/07 05:27:37;;;;;;;;;21.67;19.00;;;;;8.41;87.01;99837.97;5083371;27;45264;-80
2023/03/07 05:30:04;;;;;;;;;22.00;18.33;;;;;8.39;86.59;99833.88;5069956;28;45907;-80
2023/03/07 05:32:30;;;;;;;;;22.67;21.00;;;;;8.36;86.68;99827.13;5082303;28;45564;-80
2023/03/07 05:34:55;;;;;;;;;26.00;24.33;;;;;8.40;87.29;99835.50;5083983;27;45477;-80
2023/03/07 05:37:20;;;;;;;;;26.33;19.67;;;;;8.40;87.09;99836.34;5083791;28;54854;-81
2023/03/07 05:39:45;;;;;;;;;24.00;21.33;;;;;8.28;86.87;99822.72;5083277;28;45569;-79
2023/03/07 05:42:12;;;;;;;;;21.00;18.33;;;;;8.36;87.17;99842.16;5084029;28;45390;-80
2023/03/07 05:44:37;;;;;;;;;19.33;19.33;;;;;8.38;87.40;99837.53;5098889;27;45493;-80
2023/03/07 05:47:03;;;;;;;;;20.00;20.00;;;;;8.38;87.35;99843.63;5082809;27;47292;-79
2023/03/07 05:49:28;;;;;;;;;22.33;21.00;;;;;8.34;86.92;99837.88;5086184;28;45326;-81
2023/03/07 05:51:53;;;;;;;;;22.00;19.33;;;;;8.28;87.28;99828.00;5084845;27;45354;-80
2023/03/07 05:54:19;;;;;;;;;25.75;23.75;;;;;8.31;87.20;99842.72;5083033;28;45456;-80
2023/03/07 05:56:44;;;;;;;;;18.00;18.00;;;;;8.25;87.70;99832.84;5083936;27;45413;-80
2023/03/07 05:59:14;;;;;;;;;24.25;21.75;;;;;8.23;87.62;99830.38;5082430;28;50773;-81
2023/03/07 06:01:39;;;;;;;;;21.00;18.00;;;;;8.19;87.57;99823.81;5083007;28;45420;-80
2023/03/07 06:04:04;;;;;;;;;17.33;16.67;;;;;8.24;87.74;99826.75;5099056;27;47318;-80
2023/03/07 06:06:30;;;;;;;;;18.33;18.33;;;;;8.26;88.12;99831.84;5062397;28;57287;-80
2023/03/07 06:08:55;;;;;;;;;27.00;24.67;;;;;8.18;88.71;99817.69;5074208;28;45311;-81
2023/03/07 06:11:20;;;;;;;;;23.33;20.67;;;;;8.28;88.04;99835.97;5082622;28;45588;-79
2023/03/07 06:13:46;;;;;;;;;23.75;22.50;;;;;8.29;88.40;99834.13;5080636;28;47944;-79
2023/03/07 06:16:11;;;;;;;;;23.00;22.00;;;;;8.32;88.52;99836.44;5076668;28;46328;-79
2023/03/07 06:18:36;;;;;;;;;23.50;21.25;;;;;8.33;88.05;99830.13;5072946;27;45389;-80
2023/03/07 06:21:05;;;;;;;;;23.00;21.00;;;;;8.27;87.93;99818.44;5081198;28;45351;-81
2023/03/07 06:23:32;;;;;;;;;23.33;19.00;;;;;8.31;88.17;99827.66;5079877;28;46333;-80
2023/03/07 06:25:58;;;;;;;;;21.00;19.00;;;;;8.28;87.49;99828.00;5074418;27;46501;-80
2023/03/07 06:28:23;;;;;;;;;21.00;20.75;;;;;8.31;87.76;99826.81;5073104;28;45488;-80
2023/03/07 06:30:49;;;;;;;;;27.25;25.75;;;;;8.30;88.07;99819.91;5080810;27;45465;-79
2023/03/07 06:33:15;;;;;;;;;22.33;18.67;;;;;8.28;89.13;99822.72;5080899;27;45583;-80
2023/03/07 06:35:42;;;;;;;;;23.75;19.25;;;;;8.30;88.13;99820.72;5080328;27;45417;-80
2023/03/07 06:38:08;;;;;;;;;25.00;21.33;;;;;8.34;88.40;99827.28;5079809;27;45294;-80
2023/03/07 06:40:33;;;;;;;;;30.67;23.00;;;;;8.29;87.93;99818.25;5070961;28;45502;-80
2023/03/07 06:42:58;;;;;;;;;21.67;19.00;;;;;8.27;88.21;99814.97;5079898;27;45432;-80
2023/03/07 06:45:24;;;;;;;;;27.00;25.00;;;;;8.31;88.51;99821.53;5080052;27;55130;-81
2023/03/07 06:47:50;;;;;;;;;27.33;24.33;;;;;8.26;88.85;99824.72;5079442;28;45487;-81
2023/03/07 06:50:16;;;;;;;;;22.00;20.25;;;;;8.22;88.99;99812.84;5065924;28;45378;-81
2023/03/07 06:52:41;;;;;;;;;20.33;18.33;;;;;8.22;88.55;99812.84;5071825;28;46441;-75
2023/03/07 06:55:07;;;;;;;;;25.67;23.67;;;;;8.26;89.09;99815.97;5071347;28;50636;-76
2023/03/07 06:57:33;;;;;;;;;25.67;21.67;;;;;8.33;89.40;99820.34;5071131;28;45361;-75
2023/03/07 06:59:59;;;;;;;;;23.33;21.67;;;;;8.30;89.38;99811.94;5067291;28;45384;-75
2023/03/07 07:02:24;;;;;;;;;27.67;25.00;;;;;8.35;89.28;99817.50;5066532;28;45297;-76
2023/03/07 07:04:49;;;;;;;;;24.33;21.33;;;;;8.36;88.42;99823.63;5066597;27;46145;-76
2023/03/07 07:07:15;;;;;;;;;20.00;17.33;;;;;8.36;89.54;99824.47;5068285;27;45436;-76
2023/03/07 07:09:43;;;;;;;;;24.67;21.67;;;;;8.35;89.51;99804.25;5072690;28;45343;-76
2023/03/07 07:12:08;;;;;;;;;20.67;19.00;;;;;8.39;89.49;99812.69;5059195;28;45512;-76
2023/03/07 07:14:34;;;;;;;;;30.00;27.00;;;;;8.40;89.46;99811.66;5077182;28;46978;-76
2023/03/07 07:17:00;;;;;;;;;24.67;20.00;;;;;8.36;89.21;99803.28;5078857;28;48931;-77
2023/03/07 07:19:25;;;;;;;;;24.00;23.00;;;;;8.45;89.17;99817.25;5079952;27;45350;-76
2023/03/07 07:21:52;;;;;;;;;25.75;21.75;;;;;8.49;89.15;99825.63;5078340;28;46733;-76
2023/03/07 07:24:18;;;;;;;;;26.67;24.67;;;;;8.40;89.16;99811.66;5071846;28;46449;-76
2023/03/07 07:26:43;;;;;;;;;19.00;18.67;;;;;8.50;89.77;99817.50;5079716;27;45351;-76
2023/03/07 07:29:08;;;;;;;;;26.33;22.00;;;;;8.54;89.50;99825.94;5079403;27;46878;-77
2023/03/07 07:31:34;;;;;;;;;21.00;21.00;;;;;8.55;89.69;99833.72;5074533;28;46040;-77
2023/03/07 07:33:59;;;;;;;;;18.67;18.67;;;;;8.53;89.31;99826.94;5073447;28;45346;-76
2023/03/07 07:36:25;;;;;;;;;18.00;18.00;;;;;8.51;89.09;99835.06;5078557;28;45487;-75
2023/03/07 07:38:50;;;;;;;;;24.67;21.67;;;;;8.54;88.45;99839.19;5078593;28;45402;-75
2023/03/07 07:41:17;;;;;;;;;29.67;24.67;;;;;8.51;88.53;99823.63;5079507;28;45418;-76
2023/03/07 07:43:45;;;;;;;;;22.33;20.00;;;;;8.67;88.27;99831.44;5078209;28;47456;-76
2023/03/07 07:46:11;;;;;;;;;25.00;24.67;;;;;8.60;88.17;99825.22;5079450;27;45218;-76
2023/03/07 07:48:36;;;;;;;;;26.00;23.00;;;;;8.59;88.83;99828.84;5079555;28;45352;-76
2023/03/07 07:51:02;;;;;;;;;23.67;20.33;;;;;8.67;88.62;99836.72;5079292;27;45264;-76
2023/03/07 07:53:28;;;;;;;;;20.67;20.67;;;;;8.64;88.66;99820.38;5074325;27;46315;-76
2023/03/07 07:55:54;;;;;;;;;22.75;21.50;;;;;8.67;88.59;99817.34;5068967;28;45720;-76
2023/03/07 07:58:19;;;;;;;;;25.33;24.33;;;;;8.76;88.68;99829.50;5074184;27;45520;-76
2023/03/07 08:00:45;;;;;;;;;27.33;21.33;;;;;8.79;88.97;99831.78;5069918;28;46242;-76
2023/03/07 08:03:13;;;;;;;;;26.33;22.67;;;;;8.84;88.64;99826.72;5079072;28;45510;-77
2023/03/07 08:05:44;;;;;;;;;22.00;19.67;;;;;9.02;88.38;99835.28;5077733;28;46120;-77
2023/03/07 08:08:09;;;;;;;;;21.33;19.33;;;;;8.91;87.80;99834.78;5074737;28;45427;-76
2023/03/07 08:10:35;;;;;;;;;22.67;22.00;;;;;9.04;87.36;99835.94;5071828;28;45319;-74
2023/03/07 08:13:00;;;;;;;;;23.67;21.33;;;;;8.96;88.08;99827.09;5079022;27;47088;-76
2023/03/07 08:15:25;;;;;;;;;27.00;23.67;;;;;8.98;87.28;99832.19;5079350;28;45542;-77
2023/03/07 08:17:51;;;;;;;;;28.00;21.67;;;;;9.09;87.59;99833.53;5078974;28;45378;-77
2023/03/07 08:20:18;;;;;;;;;18.00;14.00;;;;;9.20;87.37;99838.38;5079106;27;45345;-77
2023/03/07 08:22:48;;;;;;;;;24.33;23.33;;;;;9.25;86.40;99843.09;5079472;27;45364;-75
2023/03/07 08:25:17;;;;;;;;;27.25;26.00;;;;;9.21;86.16;99839.19;5073176;28;46037;-75
2023/03/07 08:27:42;;;;;;;;;25.00;20.00;;;;;9.17;85.80;99828.13;5068761;27;45454;-76
2023/03/07 08:30:08;;;;;;;;;25.33;23.00;;;;;9.26;85.39;99850.06;5071970;28;45317;-77
2023/03/07 08:32:34;;;;;;;;;22.33;18.67;;;;;9.18;85.21;99840.38;5069375;28;48242;-76
2023/03/07 08:34:59;;;;;;;;;21.33;21.00;;;;;9.25;85.26;99845.75;5077033;28;46834;-76
2023/03/07 08:37:24;;;;;;;;;24.33;21.67;;;;;9.19;84.90;99828.75;5092728;27;50003;-77
2023/03/07 08:39:49;;;;;;;;;26.33;22.67;;;;;9.30;84.66;99831.94;5078238;28;50579;-76
2023/03/07 08:42:15;;;;;;;;;28.00;27.00;;;;;9.31;85.19;99829.09;5078438;28;45451;-77
2023/03/07 08:44:41;;;;;;;;;21.33;18.33;;;;;9.31;85.08;99830.94;5065625;27;45771;-76
2023/03/07 08:47:06;;;;;;;;;25.75;21.25;;;;;9.26;85.00;99823.53;5079008;28;45311;-77
2023/03/07 08:49:31;;;;;;;;;22.00;20.75;;;;;9.39;84.83;99836.09;5077440;28;45911;-76
2023/03/07 08:51:56;;;;;;;;;18.67;17.00;;;;;9.38;85.24;99823.03;5076738;28;46175;-77
2023/03/07 08:54:22;;;;;;;;;28.33;24.67;;;;;9.53;85.35;99833.59;5077828;28;56428;-76
2023/03/07 08:56:47;;;;;;;;;26.33;24.67;;;;;9.45;85.12;99831.88;5078797;28;45248;-77
2023/03/07 08:59:12;;;;;;;;;22.67;21.33;;;;;9.49;85.09;99832.31;5073698;28;51300;-77
2023/03/07 09:01:38;;;;;;;;;26.33;22.67;;;;;9.47;84.67;99827.22;5075177;28;47206;-77
2023/03/07 09:04:03;;;;;;;;;28.00;25.00;;;;;9.44;85.04;99833.72;5073490;28;53059;-77
2023/03/07 09:06:29;;;;;;;;;22.33;19.33;;;;;9.44;84.69;99835.53;5077055;28;46594;-77
2023/03/07 09:08:54;;;;;;;;;32.33;23.00;;;;;9.45;84.44;99823.91;5078337;27;45515;-76
2023/03/07 09:11:20;;;;;;;;;21.67;20.00;;;;;9.50;84.92;99833.97;5073428;27;46127;-77
2023/03/07 09:13:46;;;;;;;;;25.33;23.67;;;;;9.48;84.89;99823.53;5069755;28;45362;-77
2023/03/07 09:16:11;;;;;;;;;25.33;23.00;;;;;9.56;84.95;99828.72;5074027;28;45418;-77
2023/03/07 09:18:36;;;;;;;;;23.67;20.67;;;;;9.59;84.69;99823.06;5074674;28;54668;-77
2023/03/07 09:21:04;;;;;;;;;15.75;12.50;;;;;9.66;84.97;99820.44;5069540;28;48429;-78
2023/03/07 09:23:30;;;;;;;;;25.75;23.00;;;;;9.73;84.62;99818.66;5073080;28;45544;-77
2023/03/07 09:26:00;;;;;;;;;20.25;17.75;;;;;9.76;84.53;99824.59;5074113;27;45515;-80
2023/03/07 09:28:25;;;;;;;;;25.00;20.75;;;;;9.80;84.59;99821.38;5072327;28;46423;-79
2023/03/07 09:30:51;;;;;;;;;25.00;22.25;;;;;9.94;84.94;99816.97;5070179;28;47826;-77
2023/03/07 09:33:16;;;;;;;;;24.25;20.50;;;;;10.03;84.33;99822.97;5072670;27;45398;-80
2023/03/07 09:35:41;;;;;;;;;28.50;27.25;;;;;10.15;84.02;99830.41;5072219;28;45936;-78
2023/03/07 09:38:07;;;;;;;;;26.33;23.33;;;;;10.23;83.47;99827.59;5076081;28;45457;-78
2023/03/07 09:40:32;;;;;;;;;22.67;22.67;;;;;10.15;83.43;99817.13;5077959;27;45581;-77
2023/03/07 09:43:06;;;;;;;;;34.33;28.00;;;;;10.24;83.67;99831.91;5077558;28;54720;-78
2023/03/07 09:45:50;;;;;;;;;26.33;24.00;;;;;10.19;82.84;99823.69;5077592;27;45951;-78
2023/03/07 09:48:42;;;;;;;;;26.00;23.00;;;;;10.40;81.99;99814.00;5075477;27;47111;-80
2023/03/07 09:51:20;;;;;;;;;23.33;21.00;;;;;10.43;82.03;99824.25;5075224;28;48399;-78
2023/03/07 09:54:00;;;;;;;;;23.00;22.00;;;;;10.35;81.52;99796.84;5076173;28;45497;-79
2023/03/07 09:56:31;;;;;;;;;24.33;22.33;;;;;10.41;80.79;99800.53;5073913;27;45548;-78
2023/03/07 09:59:11;;;;;;;;;23.33;22.33;;;;;10.47;81.27;99806.94;5072582;27;45341;-78
2023/03/07 10:01:38;;;;;;;;;22.00;16.67;;;;;10.56;80.76;99812.88;5075867;28;45427;-77
2023/03/07 10:04:10;;;;;;;;;20.67;20.00;;;;;10.58;81.27;99792.28;5076259;28;45413;-77
2023/03/07 10:06:42;;;;;;;;;20.67;20.33;;;;;10.71;80.47;99797.66;5076939;28;46335;-77
2023/03/07 10:09:18;;;;;;;;;25.00;22.67;;;;;10.76;80.69;99793.56;5077528;27;45791;-78
2023/03/07 10:12:01;;;;;;;;;25.33;23.00;;;;;10.86;81.22;99788.69;5074636;27;45544;-77
2023/03/07 10:14:51;;;;;;;;;21.33;20.33;;;;;10.97;80.29;99785.47;5075729;27;45518;-80
2023/03/07 10:17:25;;;;;;;;;20.67;20.00;;;;;11.05;79.98;99783.66;5077708;28;46367;-78
2023/03/07 10:20:07;;;;;;;;;17.00;16.00;;;;;11.03;79.27;99785.69;5077794;28;45736;-78
2023/03/07 10:22:49;;;;;;;;;17.67;16.00;;;;;11.19;78.08;99784.47;5077563;27;46237;-77
2023/03/07 10:25:33;;;;;;;;;22.00;21.33;;;;;11.18;78.58;99770.38;5077606;27;45472;-78
2023/03/07 10:28:17;;;;;;;;;25.00;20.00;;;;;11.19;77.55;99763.19;5075144;27;45452;-77
2023/03/07 10:30:44;;;;;;;;;23.33;20.00;;;;;11.28;77.95;99767.31;5073793;27;45696;-78
2023/03/07 10:33:17;;;;;;;;;21.67;20.67;;;;;11.37;77.82;99773.25;5076139;27;46216;-77
2023/03/07 10:35:46;;;;;;;;;25.67;23.00;;;;;11.27;77.00;99755.03;5077564;27;45514;-77
2023/03/07 10:38:24;;;;;;;;;24.00;22.33;;;;;11.30;76.63;99757.31;5077223;28;45560;-76
2023/03/07 10:41:09;;;;;;;;;22.33;21.67;;;;;11.40;76.17;99772.84;5077765;27;45756;-76
2023/03/07 10:43:35;;;;;;;;;25.00;25.00;;;;;11.36;76.30;99750.34;5072083;28;47212;-78
2023/03/07 10:46:17;;;;;;;;;22.33;20.67;;;;;11.53;76.20;99763.25;5077941;27;45436;-77
2023/03/07 10:48:48;;;;;;;;;27.00;23.00;;;;;11.60;75.52;99754.25;5078345;27;46502;-77
2023/03/07 10:51:47;;;;;;;;;25.67;24.33;;;;;11.73;76.25;99749.91;5078041;27;45527;-77
2023/03/07 10:54:28;;;;;;;;;25.33;25.33;;;;;11.93;76.35;99744.59;5076070;28;48335;-78
2023/03/07 10:57:08;;;;;;;;;26.67;24.67;;;;;12.11;75.68;99745.78;5078605;28;45381;-76
2023/03/07 10:59:36;;;;;;;;;23.67;22.33;;;;;12.20;74.07;99747.22;5076003;28;45485;-77
2023/03/07 11:02:23;;;;;;;;;24.00;23.00;;;;;12.27;74.46;99741.06;5073088;28;46229;-76
2023/03/07 11:04:48;;;;;;;;;25.33;24.67;;;;;12.29;72.33;99737.13;5073887;28;46013;-78
2023/03/07 11:07:27;;;;;;;;;23.00;18.67;;;;;12.42;72.62;99741.59;5071707;28;52527;-78
2023/03/07 11:09:53;;;;;;;;;26.67;23.00;;;;;12.30;70.72;99729.97;5079607;28;45449;-77
2023/03/07 11:12:21;;;;;;;;;20.00;20.00;;;;;12.50;70.52;99735.22;5075416;27;45494;-76
2023/03/07 11:14:56;;;;;;;;;27.33;25.67;;;;;12.61;70.08;99725.75;5070937;28;45389;-78
2023/03/07 11:17:38;;;;;;;;;27.00;24.67;;;;;12.74;70.07;99728.34;5075145;27;45222;-79
2023/03/07 11:20:27;;;;;;;;;26.00;25.67;;;;;12.83;69.62;99720.91;5060457;28;45470;-78
2023/03/07 11:23:30;;;;;;;;;23.33;19.67;;;;;12.90;68.00;99730.72;5080090;27;45378;-77